Time;durP1;ratioP1;P1;durP2;ratioP2;P2;SDS_P1;SDS_P2;PMS_P1;PMS_P2;Temp;Humidity;BMP_temperature;BMP_pressure;BME280_temperature;BME280_humidity;BME280_pressure;Samples;Min_cycle;Max_cycle;Signal;HPM_P1;HPM_P2
2023/04/25 00:01:59;;;;;;;36.95;10.57;;;;;;;13.46;92.46;100201.75;5012926;28;20040;-85
2023/04/25 00:04:26;;;;;;;36.25;9.70;;;;;;;13.47;92.63;100176.47;5014530;28;20026;-87
2023/04/25 00:06:52;;;;;;;27.13;9.77;;;;;;;13.52;92.80;100184.94;5021432;28;20346;-85
2023/04/25 00:09:18;;;;;;;34.25;9.68;;;;;;;13.52;92.58;100174.13;5037277;28;20018;-81
2023/04/25 00:11:43;;;;;;;32.95;9.30;;;;;;;13.41;92.35;100156.31;5035902;28;20050;-81
2023/04/25 00:14:09;;;;;;;19.58;7.88;;;;;;;13.48;92.38;100178.16;5036698;28;20026;-83
2023/04/25 00:16:35;;;;;;;22.98;7.82;;;;;;;13.44;92.39;100169.50;5036120;28;20040;-88
2023/04/25 00:19:03;;;;;;;29.52;9.95;;;;;;;13.50;92.34;100170.75;5030345;28;20026;-86
2023/04/25 00:21:28;;;;;;;28.85;8.27;;;;;;;13.62;92.23;100172.22;5015304;28;20408;-86
2023/04/25 00:23:54;;;;;;;30.30;9.43;;;;;;;13.63;91.72;100165.81;5012975;28;20030;-84
2023/04/25 00:26:20;;;;;;;33.75;9.55;;;;;;;13.55;91.00;100165.72;5013468;28;20034;-87
2023/04/25 00:28:47;;;;;;;26.23;8.23;;;;;;;13.53;90.97;100159.63;4980995;28;20575;-84
2023/04/25 00:31:12;;;;;;;36.13;8.20;;;;;;;13.66;90.86;100154.69;5034063;28;20034;-81
2023/04/25 00:33:37;;;;;;;30.77;8.43;;;;;;;13.63;90.79;100149.59;5034939;28;20049;-83
2023/04/25 00:36:03;;;;;;;37.60;10.13;;;;;;;13.76;90.59;100150.03;5012991;28;20022;-88
2023/04/25 00:38:28;;;;;;;49.33;9.85;;;;;;;13.75;90.05;100140.22;5010133;28;20057;-85
2023/04/25 00:40:55;;;;;;;21.27;8.73;;;;;;;13.71;89.78;100128.03;5010797;28;20045;-87
2023/04/25 00:43:21;;;;;;;38.90;8.32;;;;;;;13.64;89.69;100140.47;5010382;28;20033;-86
2023/04/25 00:45:48;;;;;;;39.10;9.35;;;;;;;13.55;89.93;100146.81;5010933;28;20032;-87
2023/04/25 00:48:14;;;;;;;26.35;8.88;;;;;;;13.61;90.29;100132.66;5013816;28;20021;-86
2023/04/25 00:50:40;;;;;;;29.38;8.75;;;;;;;13.71;90.04;100136.13;5011463;28;20060;-86
2023/04/25 00:53:06;;;;;;;24.75;9.32;;;;;;;13.65;90.10;100125.97;5012326;28;20112;-87
2023/04/25 00:55:34;;;;;;;22.08;8.63;;;;;;;13.66;90.04;100132.22;5010634;28;20037;-86
2023/04/25 00:58:00;;;;;;;33.38;8.55;;;;;;;13.68;90.04;100125.63;5010184;28;20029;-85
2023/04/25 01:00:26;;;;;;;36.35;9.98;;;;;;;13.76;89.73;100123.00;5010816;28;20396;-87
2023/04/25 01:02:53;;;;;;;17.25;8.45;;;;;;;13.66;89.88;100113.28;5012307;28;20022;-87
2023/04/25 01:05:18;;;;;;;33.25;9.10;;;;;;;13.56;89.99;100125.03;5012925;28;20112;-88
2023/04/25 01:07:44;;;;;;;28.27;9.45;;;;;;;13.54;90.37;100120.81;5011549;28;20187;-86
2023/04/25 01:10:10;;;;;;;34.25;9.73;;;;;;;13.64;90.77;100125.09;5010441;28;20034;-87
2023/04/25 01:12:36;;;;;;;25.77;9.80;;;;;;;13.69;90.46;100111.13;5009913;28;20422;-86
2023/04/25 01:15:01;;;;;;;35.08;8.93;;;;;;;13.76;90.29;100125.69;5010431;28;20025;-84
2023/04/25 01:17:27;;;;;;;32.17;9.63;;;;;;;13.81;90.08;100109.88;5010696;28;20133;-87
2023/04/25 01:19:53;;;;;;;23.58;8.45;;;;;;;13.91;89.68;100110.59;5010551;28;20072;-86
2023/04/25 01:22:19;;;;;;;42.38;9.48;;;;;;;13.91;88.90;100102.50;5012146;28;20716;-86
2023/04/25 01:24:45;;;;;;;23.92;9.30;;;;;;;13.97;88.50;100110.00;5013062;28;20109;-85
2023/04/25 01:27:10;;;;;;;27.70;8.25;;;;;;;13.95;88.17;100095.75;5018370;28;20041;-84
2023/04/25 01:29:36;;;;;;;51.10;10.60;;;;;;;13.87;88.08;100093.03;5034800;28;20077;-83
2023/04/25 01:32:03;;;;;;;34.60;10.10;;;;;;;13.85;88.52;100103.13;5031101;28;20044;-86
2023/04/25 01:34:28;;;;;;;28.77;9.43;;;;;;;13.92;88.38;100101.50;5009979;28;20120;-87
2023/04/25 01:36:54;;;;;;;53.15;11.00;;;;;;;13.94;88.20;100094.06;5010235;28;20449;-86
2023/04/25 01:39:20;;;;;;;22.50;8.77;;;;;;;13.97;88.17;100093.78;5012697;28;20036;-86
2023/04/25 01:41:46;;;;;;;27.92;9.90;;;;;;;13.93;88.24;100094.22;5012109;28;20026;-87
2023/04/25 01:44:11;;;;;;;25.33;8.48;;;;;;;13.97;88.03;100096.47;5010829;28;20478;-86
2023/04/25 01:46:37;;;;;;;34.70;9.57;;;;;;;14.06;87.87;100092.81;5010974;28;20034;-87
2023/04/25 01:49:03;;;;;;;35.70;9.80;;;;;;;14.12;87.61;100092.16;5010829;28;20109;-87
2023/04/25 01:51:29;;;;;;;26.10;8.35;;;;;;;14.04;87.04;100073.19;5009542;28;20089;-86
2023/04/25 01:53:56;;;;;;;30.88;8.98;;;;;;;14.08;87.33;100084.53;4990784;28;20057;-85
2023/04/25 01:56:21;;;;;;;26.15;9.15;;;;;;;14.00;86.70;100070.97;5009580;28;20030;-86
2023/04/25 01:58:47;;;;;;;33.80;9.75;;;;;;;14.06;86.82;100071.19;5009131;28;20022;-86
2023/04/25 02:01:12;;;;;;;25.52;8.65;;;;;;;13.97;86.80;100060.47;5009737;28;20064;-85
2023/04/25 02:03:38;;;;;;;30.23;9.40;;;;;;;14.01;87.34;100061.81;5009791;28;20164;-86
2023/04/25 02:06:03;;;;;;;28.60;9.73;;;;;;;13.97;87.28;100055.91;5014331;28;20090;-87
2023/04/25 02:08:30;;;;;;;26.58;8.98;;;;;;;14.04;87.37;100046.13;5023569;28;20034;-86
2023/04/25 02:10:55;;;;;;;60.53;11.82;;;;;;;14.15;86.87;100059.41;5028540;28;20034;-87
2023/04/25 02:13:21;;;;;;;46.60;9.77;;;;;;;14.17;86.64;100046.56;5009961;28;20068;-86
2023/04/25 02:15:46;;;;;;;34.78;10.40;;;;;;;13.98;86.70;100035.13;5018771;28;20465;-86
2023/04/25 02:18:11;;;;;;;27.52;9.65;;;;;;;13.79;87.41;100051.59;5010364;28;20030;-87
2023/04/25 02:20:37;;;;;;;24.85;11.02;;;;;;;13.68;88.93;100049.13;5010312;28;20049;-87
2023/04/25 02:23:03;;;;;;;41.50;11.52;;;;;;;13.55;89.60;100060.34;5011954;28;20028;-88
2023/04/25 02:25:29;;;;;;;36.65;9.23;;;;;;;13.50;90.48;100057.28;5023756;28;20026;-83
2023/04/25 02:27:54;;;;;;;29.25;11.43;;;;;;;13.58;90.84;100038.41;5037185;28;20040;-80
2023/04/25 02:30:20;;;;;;;30.48;10.68;;;;;;;13.59;90.78;100037.41;5030469;28;20034;-86
2023/04/25 02:32:45;;;;;;;27.33;9.55;;;;;;;13.58;90.92;100035.72;5013973;28;20056;-86
2023/04/25 02:35:11;;;;;;;22.13;9.45;;;;;;;13.55;91.11;100034.19;5013823;28;20481;-87
2023/04/25 02:37:38;;;;;;;57.03;12.80;;;;;;;13.58;91.44;100025.75;5013399;28;20430;-87
2023/04/25 02:40:04;;;;;;;30.65;11.20;;;;;;;13.59;91.29;100026.59;5013506;28;20053;-86
2023/04/25 02:42:30;;;;;;;38.17;11.27;;;;;;;13.64;91.70;100026.97;5015007;28;20096;-86
2023/04/25 02:44:55;;;;;;;41.55;11.23;;;;;;;13.60;91.50;100020.22;5012991;28;20042;-86
2023/04/25 02:47:21;;;;;;;32.85;11.40;;;;;;;13.71;91.68;100009.13;5013419;28;20560;-86
2023/04/25 02:49:47;;;;;;;35.80;11.00;;;;;;;13.60;91.35;100010.25;5013205;28;20037;-85
2023/04/25 02:52:12;;;;;;;46.53;10.90;;;;;;;13.57;91.77;100015.13;5012986;28;20107;-86
2023/04/25 02:54:38;;;;;;;35.83;11.75;;;;;;;13.67;91.74;100013.13;5013652;28;20584;-87
2023/04/25 02:57:04;;;;;;;32.45;12.32;;;;;;;13.65;91.44;100012.47;5012920;28;20076;-88
2023/04/25 02:59:29;;;;;;;38.50;12.57;;;;;;;13.79;91.16;100005.63;5014427;28;20030;-86
2023/04/25 03:01:55;;;;;;;34.20;11.55;;;;;;;13.77;91.17;100010.34;5013182;28;20084;-87
2023/04/25 03:04:20;;;;;;;45.22;12.52;;;;;;;13.69;91.23;100008.44;5012687;28;20033;-81
2023/04/25 03:06:46;;;;;;;40.70;13.93;;;;;;;13.68;91.21;100012.16;5012721;28;20025;-86
2023/04/25 03:09:12;;;;;;;43.33;12.82;;;;;;;13.69;91.81;100013.84;5013282;28;20025;-85
2023/04/25 03:11:38;;;;;;;50.28;12.95;;;;;;;13.80;91.99;100004.59;5013129;28;20065;-84
2023/04/25 03:14:04;;;;;;;25.27;12.20;;;;;;;13.87;91.62;100008.38;5016003;28;20025;-86
2023/04/25 03:16:30;;;;;;;38.63;12.05;;;;;;;13.81;91.28;99996.34;5019199;28;20030;-86
2023/04/25 03:18:56;;;;;;;43.65;12.07;;;;;;;13.72;91.17;100001.88;5001308;28;20034;-84
2023/04/25 03:21:22;;;;;;;44.20;12.10;;;;;;;13.71;91.33;99997.47;5019494;28;20034;-85
2023/04/25 03:23:47;;;;;;;39.05;11.88;;;;;;;13.71;91.74;100003.72;5025216;28;20720;-82
2023/04/25 03:26:12;;;;;;;42.72;13.52;;;;;;;13.64;92.17;99994.53;5033001;28;20068;-81
2023/04/25 03:28:39;;;;;;;30.63;12.18;;;;;;;13.64;92.35;99995.41;5025870;28;20460;-85
2023/04/25 03:31:04;;;;;;;61.58;14.40;;;;;;;13.59;92.38;99997.75;5012074;28;20026;-86
2023/04/25 03:33:30;;;;;;;54.88;13.30;;;;;;;13.63;92.57;99990.16;5012081;28;20075;-87
2023/04/25 03:35:55;;;;;;;35.67;13.60;;;;;;;13.69;92.68;99994.94;5011307;28;20771;-89
2023/04/25 03:38:21;;;;;;;28.55;12.82;;;;;;;13.73;92.16;99999.00;5012352;28;20123;-87
2023/04/25 03:40:46;;;;;;;43.95;14.85;;;;;;;13.75;92.24;99986.19;5012780;28;20034;-83
2023/04/25 03:43:11;;;;;;;44.45;12.90;;;;;;;13.68;92.05;99989.66;5012227;28;20133;-87
2023/04/25 03:45:37;;;;;;;34.13;12.90;;;;;;;13.66;92.14;99986.28;5012626;28;20026;-87
2023/04/25 03:48:03;;;;;;;40.00;14.45;;;;;;;13.75;92.11;99985.34;5012170;28;20026;-84
2023/04/25 03:50:28;;;;;;;62.42;15.13;;;;;;;13.83;91.76;99988.91;5011424;28;20401;-85
2023/04/25 03:52:54;;;;;;;50.83;13.63;;;;;;;13.81;91.72;99990.94;5009868;28;20063;-81
2023/04/25 03:55:19;;;;;;;49.28;15.02;;;;;;;13.75;91.41;99990.75;5011161;28;20053;-81
2023/04/25 03:57:45;;;;;;;39.88;14.52;;;;;;;13.77;91.46;99996.81;5006554;28;20038;-81
2023/04/25 04:00:11;;;;;;;40.25;13.90;;;;;;;13.73;91.36;99982.78;5012584;28;20022;-89
2023/04/25 04:02:37;;;;;;;88.97;17.77;;;;;;;13.77;91.57;99988.72;5012246;28;20082;-85
2023/04/25 04:05:03;;;;;;;41.33;13.50;;;;;;;13.62;91.48;99983.91;5014433;28;20041;-86
2023/04/25 04:07:29;;;;;;;55.83;19.50;;;;;;;13.65;91.81;99980.03;5025601;28;20037;-86
2023/04/25 04:09:54;;;;;;;52.85;16.70;;;;;;;13.75;91.89;99988.88;5028515;28;20037;-84
2023/04/25 04:12:20;;;;;;;59.60;15.13;;;;;;;13.76;91.76;99979.75;5018179;28;20022;-86
2023/04/25 04:14:45;;;;;;;65.88;18.30;;;;;;;13.74;91.42;99979.06;5013391;28;20030;-83
2023/04/25 04:17:11;;;;;;;51.63;16.05;;;;;;;13.70;91.53;99983.09;5026970;28;20038;-89
2023/04/25 04:19:36;;;;;;;59.42;16.58;;;;;;;13.67;91.75;99972.59;5016839;28;20113;-85
2023/04/25 04:22:02;;;;;;;88.57;18.05;;;;;;;13.70;91.85;99966.88;5030607;28;20129;-81
2023/04/25 04:24:27;;;;;;;42.28;13.77;;;;;;;13.78;91.31;99963.38;5031477;28;20037;-81
2023/04/25 04:26:53;;;;;;;61.08;16.27;;;;;;;13.71;90.98;99973.13;5034929;28;20046;-79
2023/04/25 04:29:20;;;;;;;53.30;14.70;;;;;;;13.63;91.47;99973.97;5034656;28;20021;-82
2023/04/25 04:31:50;;;;;;;38.88;14.27;;;;;;;13.56;91.50;99975.59;5033940;28;20034;-82
2023/04/25 04:34:19;;;;;;;47.55;14.98;;;;;;;13.62;91.96;99980.34;5013465;28;20080;-82
2023/04/25 04:36:48;;;;;;;94.60;19.55;;;;;;;13.73;92.20;99976.56;5009442;28;20557;-84
2023/04/25 04:39:14;;;;;;;68.50;17.10;;;;;;;13.72;92.04;99978.41;5009449;28;20049;-86
2023/04/25 04:41:40;;;;;;;74.18;19.85;;;;;;;13.76;91.92;99960.00;5009709;28;20497;-93
2023/04/25 04:44:06;;;;;;;66.25;16.20;;;;;;;13.89;91.99;99968.50;5009116;28;20428;-89
2023/04/25 04:46:37;;;;;;;59.15;17.80;;;;;;;13.94;91.39;99958.88;5009804;28;20036;-82
2023/04/25 04:49:06;;;;;;;67.85;16.92;;;;;;;14.14;91.29;99978.41;5007832;28;20133;-81
2023/04/25 04:51:32;;;;;;;86.57;22.92;;;;;;;14.24;90.03;99971.03;5008668;28;20069;-81
2023/04/25 04:54:02;;;;;;;98.10;22.02;;;;;;;14.34;89.54;99971.75;5009717;28;20508;-81
2023/04/25 04:56:29;;;;;;;48.22;15.63;;;;;;;14.32;89.11;99956.66;5008964;28;20088;-84
2023/04/25 04:58:54;;;;;;;44.83;13.82;;;;;;;14.42;88.19;99969.06;5009079;28;20030;-86
2023/04/25 05:01:20;;;;;;;60.35;14.85;;;;;;;14.43;87.22;99967.22;5010911;28;20144;-84
2023/04/25 05:03:45;;;;;;;42.35;14.68;;;;;;;14.36;86.69;99968.88;5009021;28;20734;-83
2023/04/25 05:06:11;;;;;;;76.97;17.30;;;;;;;14.33;86.58;99971.91;5010775;28;20034;-81
2023/04/25 05:08:36;;;;;;;71.95;15.40;;;;;;;14.34;86.08;99957.41;5009731;28;20021;-82
2023/04/25 05:11:02;;;;;;;72.97;16.63;;;;;;;14.41;86.44;99961.97;5008206;28;20109;-79
2023/04/25 05:13:27;;;;;;;97.45;15.75;;;;;;;14.47;86.11;99957.75;5014472;28;20121;-83
2023/04/25 05:15:53;;;;;;;57.50;13.88;;;;;;;14.55;85.97;99952.38;5022100;28;20101;-83
2023/04/25 05:18:18;;;;;;;71.93;15.68;;;;;;;14.51;84.83;99961.81;5016653;28;20026;-82
2023/04/25 05:20:44;;;;;;;47.53;14.65;;;;;;;14.42;84.74;99968.22;5017968;28;20022;-79
2023/04/25 05:23:10;;;;;;;67.18;15.52;;;;;;;14.33;83.72;99980.03;5017131;28;20036;-78
2023/04/25 05:25:35;;;;;;;47.70;12.38;;;;;;;14.28;83.08;99955.31;5007831;28;20022;-79
2023/04/25 05:28:00;;;;;;;53.33;14.65;;;;;;;14.52;83.34;99964.38;5007913;28;20057;-79
2023/04/25 05:30:26;;;;;;;63.67;15.68;;;;;;;14.62;83.50;99961.47;5008738;28;20428;-79
2023/04/25 05:32:51;;;;;;;51.88;14.93;;;;;;;14.71;83.10;99957.78;5010152;28;20026;-78
2023/04/25 05:35:17;;;;;;;42.35;14.52;;;;;;;14.89;82.90;99955.75;5008021;28;20605;-80
2023/04/25 05:37:42;;;;;;;81.18;17.48;;;;;;;15.04;81.25;99947.81;5008578;28;20125;-78
2023/04/25 05:40:08;;;;;;;53.15;14.90;;;;;;;15.06;81.13;99957.47;5007810;28;20033;-79
2023/04/25 05:42:34;;;;;;;44.58;12.25;;;;;;;15.20;80.98;99947.78;5007666;28;20449;-79
2023/04/25 05:45:00;;;;;;;58.30;14.55;;;;;;;15.24;80.16;99947.28;5005329;28;20041;-79
2023/04/25 05:47:26;;;;;;;51.92;13.55;;;;;;;15.43;79.01;99948.78;5007692;28;20693;-79
2023/04/25 05:49:51;;;;;;;47.92;11.05;;;;;;;15.47;77.40;99952.00;5007650;28;20056;-79
2023/04/25 05:52:16;;;;;;;47.72;12.02;;;;;;;15.33;75.60;99944.56;5007686;28;20104;-78
2023/04/25 05:54:42;;;;;;;53.67;13.02;;;;;;;15.38;75.72;99939.50;5007299;28;20030;-77
2023/04/25 05:57:07;;;;;;;45.95;12.23;;;;;;;15.45;76.35;99925.06;5008499;28;20030;-77
2023/04/25 05:59:33;;;;;;;27.17;11.25;;;;;;;15.60;75.89;99927.94;5012003;28;20053;-79
2023/04/25 06:01:58;;;;;;;62.35;13.23;;;;;;;15.68;75.86;99936.91;5012121;28;20030;-79
2023/04/25 06:04:25;;;;;;;43.92;12.25;;;;;;;15.84;76.02;99933.28;5012334;28;20033;-78
2023/04/25 06:06:50;;;;;;;41.88;10.80;;;;;;;15.75;74.13;99926.19;5017713;28;20512;-77
2023/04/25 06:09:16;;;;;;;43.08;11.23;;;;;;;15.75;73.66;99915.34;5012109;28;20018;-78
2023/04/25 06:11:41;;;;;;;40.42;11.98;;;;;;;15.94;72.87;99933.06;5012201;28;20025;-78
2023/04/25 06:14:07;;;;;;;56.92;12.07;;;;;;;16.05;72.35;99917.28;5012171;28;20030;-79
2023/04/25 06:16:32;;;;;;;60.88;11.50;;;;;;;16.12;71.31;99922.81;5013035;28;20026;-78
2023/04/25 06:18:58;;;;;;;56.33;12.52;;;;;;;16.17;72.09;99920.44;5013572;28;20058;-78
2023/04/25 06:21:23;;;;;;;59.70;13.82;;;;;;;16.27;72.22;99921.88;5011403;28;20030;-77
2023/04/25 06:23:49;;;;;;;34.90;11.95;;;;;;;16.33;71.01;99917.59;5011385;28;20429;-79
2023/04/25 06:26:14;;;;;;;33.58;10.93;;;;;;;16.26;70.86;99922.91;5012234;28;20136;-78
2023/04/25 06:28:40;;;;;;;45.10;12.43;;;;;;;16.20;71.57;99914.66;5012457;28;20021;-77
2023/04/25 06:31:06;;;;;;;74.88;24.17;;;;;;;16.29;71.44;99906.28;5012508;28;20246;-78
2023/04/25 06:33:31;;;;;;;43.25;11.05;;;;;;;16.37;71.34;99918.09;5011960;28;20033;-78
2023/04/25 06:35:57;;;;;;;62.28;12.48;;;;;;;16.31;70.55;99917.78;5011832;28;20022;-77
2023/04/25 06:38:22;;;;;;;65.15;12.77;;;;;;;16.48;70.29;99920.41;5013273;28;20033;-77
2023/04/25 06:40:47;;;;;;;63.35;13.75;;;;;;;16.64;69.89;99906.72;5012499;28;20073;-77
2023/04/25 06:43:13;;;;;;;43.75;14.40;;;;;;;16.74;68.45;99894.63;5012558;28;20026;-76
2023/04/25 06:45:38;;;;;;;117.63;33.75;;;;;;;16.94;68.01;99911.25;5010414;28;20099;-77
2023/04/25 06:48:04;;;;;;;63.85;16.45;;;;;;;17.03;67.40;99898.44;5012051;28;20033;-79
2023/04/25 06:50:29;;;;;;;59.22;12.93;;;;;;;17.18;66.68;99902.03;5012076;28;20050;-78
2023/04/25 06:52:55;;;;;;;36.00;11.30;;;;;;;17.18;65.69;99905.59;5011132;28;20118;-78
2023/04/25 06:55:20;;;;;;;31.38;11.20;;;;;;;17.27;65.59;99904.50;5012701;28;20124;-78
2023/04/25 06:57:45;;;;;;;65.05;11.50;;;;;;;17.20;65.01;99892.66;5012147;28;20430;-77
2023/04/25 07:00:11;;;;;;;51.63;11.57;;;;;;;17.11;65.87;99910.09;5011651;28;20465;-78
2023/04/25 07:02:37;;;;;;;37.05;10.73;;;;;;;16.91;66.86;99902.63;5011994;28;20109;-79
2023/04/25 07:05:04;;;;;;;29.63;10.63;;;;;;;16.82;66.60;99907.25;5011727;28;20404;-79
2023/04/25 07:07:30;;;;;;;45.53;11.13;;;;;;;16.81;67.22;99911.03;5009324;28;20030;-78
2023/04/25 07:09:56;;;;;;;114.95;19.50;;;;;;;16.85;67.25;99904.19;5010828;28;20037;-78
2023/04/25 07:12:21;;;;;;;58.40;11.68;;;;;;;16.72;67.32;99895.81;5014803;28;20080;-78
2023/04/25 07:14:47;;;;;;;42.67;12.45;;;;;;;16.76;66.67;99886.28;5014116;28;20100;-79
2023/04/25 07:17:12;;;;;;;37.55;11.25;;;;;;;16.81;66.54;99902.88;5012011;28;20033;-78
2023/04/25 07:19:39;;;;;;;39.10;10.98;;;;;;;16.62;66.28;99895.22;5012017;28;20053;-78
2023/04/25 07:22:05;;;;;;;31.05;10.00;;;;;;;16.70;66.73;99887.00;5011477;28;20104;-78
2023/04/25 07:24:31;;;;;;;41.17;11.05;;;;;;;16.86;66.71;99890.44;5011648;28;20033;-79
2023/04/25 07:26:56;;;;;;;44.00;11.65;;;;;;;17.03;66.08;99891.13;5008801;28;20041;-79
2023/04/25 07:29:22;;;;;;;33.95;10.80;;;;;;;16.97;65.82;99891.03;5011712;28;20030;-79
2023/04/25 07:31:47;;;;;;;92.85;13.82;;;;;;;17.00;64.78;99886.06;5011091;28;20033;-78
2023/04/25 07:34:13;;;;;;;63.47;11.10;;;;;;;17.03;64.10;99869.38;5011158;28;20041;-80
2023/04/25 07:36:38;;;;;;;35.97;10.38;;;;;;;17.11;63.18;99872.03;5011267;28;20030;-78
2023/04/25 07:39:04;;;;;;;28.55;9.25;;;;;;;17.26;63.44;99864.75;5011079;28;20034;-78
2023/04/25 07:41:29;;;;;;;44.40;9.23;;;;;;;17.26;61.84;99853.88;5011472;28;20033;-79
2023/04/25 07:43:54;;;;;;;37.88;10.15;;;;;;;17.37;61.11;99861.56;5010662;28;20029;-79
2023/04/25 07:46:20;;;;;;;29.38;9.60;;;;;;;17.53;61.08;99871.41;5011030;28;20026;-79
2023/04/25 07:48:45;;;;;;;35.40;10.07;;;;;;;17.48;61.49;99856.69;5010470;28;20030;-78
2023/04/25 07:51:11;;;;;;;39.10;11.00;;;;;;;17.70;61.04;99859.34;5010900;28;20042;-79
2023/04/25 07:53:37;;;;;;;44.08;10.18;;;;;;;17.78;60.42;99853.78;5010602;28;20017;-78
2023/04/25 07:56:03;;;;;;;23.55;9.13;;;;;;;17.83;60.85;99855.94;5010542;28;20095;-79
2023/04/25 07:58:28;;;;;;;21.63;9.80;;;;;;;17.70;61.25;99856.63;5010809;28;20541;-79
2023/04/25 08:00:54;;;;;;;48.90;12.00;;;;;;;17.67;61.57;99854.28;5010458;28;20465;-79
2023/04/25 08:03:19;;;;;;;56.17;13.82;;;;;;;17.59;62.08;99857.09;5017335;28;20120;-77
2023/04/25 08:05:45;;;;;;;74.90;14.75;;;;;;;17.48;62.74;99851.25;5013743;28;20094;-79
2023/04/25 08:08:11;;;;;;;36.42;11.85;;;;;;;17.37;63.04;99850.69;5011536;28;20055;-80
2023/04/25 08:10:36;;;;;;;27.63;9.65;;;;;;;17.33;62.78;99862.13;5012500;28;20536;-79
2023/04/25 08:13:02;;;;;;;27.50;10.70;;;;;;;17.20;62.25;99870.06;5011862;28;20018;-79
2023/04/25 08:15:27;;;;;;;38.53;10.57;;;;;;;17.07;62.39;99868.00;5010695;28;20136;-79
2023/04/25 08:17:53;;;;;;;31.92;10.73;;;;;;;17.02;62.95;99862.28;5010294;28;20112;-77
2023/04/25 08:20:18;;;;;;;39.80;10.30;;;;;;;17.06;62.93;99874.47;5009831;28;20069;-79
2023/04/25 08:22:44;;;;;;;58.88;12.50;;;;;;;16.82;63.85;99883.69;5010226;28;20087;-79
2023/04/25 08:25:09;;;;;;;31.17;11.05;;;;;;;16.66;64.73;99877.56;5010642;28;20064;-79
2023/04/25 08:27:35;;;;;;;51.72;13.63;;;;;;;16.71;65.59;99880.56;5010489;28;20030;-77
2023/04/25 08:30:03;;;;;;;32.22;12.02;;;;;;;16.25;65.59;99896.81;5010269;28;20058;-80
2023/04/25 08:32:28;;;;;;;37.50;12.23;;;;;;;16.29;66.70;99887.28;5010193;28;20156;-77
2023/04/25 08:34:55;;;;;;;38.72;10.93;;;;;;;16.63;66.38;99875.19;5010524;28;20042;-81
2023/04/25 08:37:21;;;;;;;39.40;11.27;;;;;;;16.70;65.40;99876.13;5010228;28;20029;-77
2023/04/25 08:39:48;;;;;;;38.65;10.00;;;;;;;16.97;64.39;99881.00;5008680;28;20125;-79
2023/04/25 08:42:15;;;;;;;54.47;12.60;;;;;;;17.03;62.80;99880.25;5011256;28;20033;-79
2023/04/25 08:44:40;;;;;;;24.65;9.50;;;;;;;17.06;62.75;99879.91;5009749;28;20033;-79
2023/04/25 08:47:06;;;;;;;52.30;11.20;;;;;;;17.07;63.42;99865.28;5012226;28;20029;-77
2023/04/25 08:49:33;;;;;;;29.45;9.45;;;;;;;17.03;62.47;99879.44;5013770;28;20026;-79
2023/04/25 08:52:01;;;;;;;54.60;11.30;;;;;;;16.95;62.77;99874.06;5013577;28;20056;-79
2023/04/25 08:54:28;;;;;;;40.90;9.80;;;;;;;16.82;61.69;99867.38;5009383;28;20540;-78
2023/04/25 08:56:55;;;;;;;30.80;10.13;;;;;;;16.73;61.59;99873.91;5010012;28;20029;-78
2023/04/25 08:59:22;;;;;;;34.28;8.50;;;;;;;16.75;62.33;99877.31;5009895;28;20026;-78
2023/04/25 09:01:49;;;;;;;42.80;10.50;;;;;;;16.80;62.95;99890.31;5009382;28;20527;-78
2023/04/25 09:04:15;;;;;;;45.33;11.75;;;;;;;17.03;62.95;99874.81;5009649;28;20025;-79
2023/04/25 09:06:41;;;;;;;27.52;9.10;;;;;;;17.17;61.28;99882.16;5010391;28;20377;-78
2023/04/25 09:09:08;;;;;;;28.10;7.97;;;;;;;17.22;60.07;99884.31;5011474;28;20089;-78
2023/04/25 09:11:35;;;;;;;27.90;8.48;;;;;;;17.25;59.82;99882.06;5011392;28;20042;-78
2023/04/25 09:14:20;;;;;;;86.90;16.85;;;;;;;17.52;60.27;99879.75;5008797;28;20068;-79
2023/04/25 09:16:59;;;;;;;38.22;11.48;;;;;;;17.75;59.74;99867.78;5009069;28;20061;-79
2023/04/25 09:19:27;;;;;;;53.00;11.77;;;;;;;17.93;59.06;99875.53;5009524;28;20034;-77
2023/04/25 09:21:57;;;;;;;42.30;9.80;;;;;;;18.08;58.75;99860.00;5008897;28;20273;-78
2023/04/25 09:24:36;;;;;;;22.52;8.68;;;;;;;18.11;58.26;99869.66;5009015;28;20041;-78
2023/04/25 09:27:10;;;;;;;24.63;7.65;;;;;;;17.83;58.75;99856.78;5009313;28;20044;-78
2023/04/25 09:29:37;;;;;;;25.98;9.25;;;;;;;17.86;59.17;99864.56;5009097;28;20401;-78
2023/04/25 09:32:22;;;;;;;26.25;7.40;;;;;;;17.95;59.05;99866.13;5009112;28;20390;-77
2023/04/25 09:34:53;;;;;;;30.30;8.20;;;;;;;17.94;58.71;99858.19;5009139;28;20473;-80
2023/04/25 09:37:30;;;;;;;24.73;8.52;;;;;;;18.04;58.63;99853.25;5009563;28;20038;-77
2023/04/25 09:39:59;;;;;;;266.88;29.00;;;;;;;18.05;58.51;99857.69;5006401;28;20041;-78
2023/04/25 09:42:28;;;;;;;43.47;9.27;;;;;;;18.13;58.50;99857.56;5009130;28;20026;-78
2023/04/25 09:44:56;;;;;;;30.85;8.63;;;;;;;18.28;58.13;99836.59;5008986;28;20555;-78
2023/04/25 09:47:24;;;;;;;33.40;8.88;;;;;;;18.53;57.45;99842.50;5008819;28;20034;-79
2023/04/25 09:49:51;;;;;;;28.02;7.72;;;;;;;18.57;57.30;99830.19;5008790;28;20176;-78
2023/04/25 09:52:21;;;;;;;54.90;10.57;;;;;;;18.88;56.81;99840.72;5008995;28;20069;-79
2023/04/25 09:54:48;;;;;;;38.22;8.05;;;;;;;18.91;56.77;99834.88;5009192;28;20030;-79
2023/04/25 09:57:15;;;;;;;27.00;8.27;;;;;;;18.88;56.43;99830.69;5008529;28;20041;-77
2023/04/25 09:59:55;;;;;;;25.73;8.15;;;;;;;18.89;56.63;99837.81;5008692;28;20335;-78
2023/04/25 10:02:23;;;;;;;45.03;7.80;;;;;;;19.07;56.18;99831.03;5016300;28;20026;-77
2023/04/25 10:04:52;;;;;;;34.45;8.38;;;;;;;18.99;57.02;99826.56;5011497;28;20401;-77
2023/04/25 10:07:20;;;;;;;39.50;8.05;;;;;;;19.22;56.75;99810.78;5010923;28;20702;-78
2023/04/25 10:09:50;;;;;;;25.00;7.88;;;;;;;19.27;56.00;99821.94;5009388;28;20061;-77
2023/04/25 10:12:16;;;;;;;35.53;7.40;;;;;;;19.41;55.96;99810.09;5008632;28;20040;-78
2023/04/25 10:14:42;;;;;;;116.57;16.48;;;;;;;19.76;55.02;99801.84;5008749;28;20034;-77
2023/04/25 10:17:10;;;;;;;26.35;8.85;;;;;;;19.96;54.66;99803.63;5008906;28;20044;-78
2023/04/25 10:19:36;;;;;;;32.72;8.27;;;;;;;20.17;54.35;99793.59;5008702;28;20029;-77
2023/04/25 10:22:08;;;;;;;34.67;8.68;;;;;;;19.99;54.47;99775.94;5008935;28;20022;-77
2023/04/25 10:24:36;;;;;;;32.97;7.78;;;;;;;20.46;53.85;99788.63;5008968;28;20026;-78
2023/04/25 10:27:02;;;;;;;58.25;26.58;;;;;;;20.76;53.43;99793.69;5008454;28;20065;-78
2023/04/25 10:29:27;;;;;;;16.60;6.80;;;;;;;20.77;53.04;99792.63;5008607;28;20088;-80
2023/04/25 10:31:53;;;;;;;21.48;7.32;;;;;;;20.91;53.01;99786.97;5008368;28;20022;-78
2023/04/25 10:34:23;;;;;;;20.27;6.93;;;;;;;20.73;52.39;99781.28;5008529;28;20038;-80
2023/04/25 10:36:53;;;;;;;36.45;8.68;;;;;;;20.62;53.16;99781.91;5008407;28;20026;-80
2023/04/25 10:39:27;;;;;;;33.42;9.30;;;;;;;20.59;52.87;99777.72;5008432;28;20065;-80
2023/04/25 10:41:53;;;;;;;15.05;5.80;;;;;;;20.59;53.57;99777.72;5008209;28;20056;-80
2023/04/25 10:44:19;;;;;;;22.10;6.43;;;;;;;20.53;52.94;99778.53;5008363;28;20037;-79
2023/04/25 10:46:45;;;;;;;26.60;6.78;;;;;;;20.42;53.22;99776.44;5011898;28;20033;-78
2023/04/25 10:49:27;;;;;;;19.85;7.40;;;;;;;20.21;54.03;99768.41;5012014;28;20026;-79
2023/04/25 10:52:22;;;;;;;31.83;7.72;;;;;;;20.18;54.71;99779.75;5012104;28;20057;-79
2023/04/25 10:54:54;;;;;;;50.20;9.00;;;;;;;20.18;53.53;99785.22;5011461;28;20478;-78
2023/04/25 10:57:30;;;;;;;23.88;7.53;;;;;;;20.05;54.56;99779.72;5011771;28;20477;-78
2023/04/25 11:00:00;;;;;;;28.35;7.90;;;;;;;19.90;54.17;99777.16;5011691;28;20030;-79
2023/04/25 11:02:28;;;;;;;28.92;7.00;;;;;;;19.69;54.68;99779.19;5013206;28;20034;-80
2023/04/25 11:04:55;;;;;;;22.20;7.13;;;;;;;19.60;55.13;99780.41;5015103;28;20033;-79
2023/04/25 11:07:44;;;;;;;23.80;7.40;;;;;;;19.51;56.09;99760.63;5013144;28;20581;-77
2023/04/25 11:10:09;;;;;;;25.15;9.65;;;;;;;19.62;55.99;99781.88;5011714;28;20778;-80
2023/04/25 11:12:35;;;;;;;30.05;8.00;;;;;;;19.44;56.50;99776.97;5011255;28;20026;-80
2023/04/25 11:15:04;;;;;;;32.55;9.00;;;;;;;19.35;56.41;99778.16;4992757;28;20099;-82